Smith River, California
Current Conditions -  °F | °C
As of 1:16 AM on Saturday 25 Oct 2014 (Local Time) from KCEC Reporting Station
Overcast Overcast  
Wind Chill: 60°   Ceiling: 6000
Heat Index: 60°   Visibility: 10mi
Dew Point: 55°   Wind: 24mph
Humidity: 83%   Direction: 220°SW
Pressure: 29.6"   Gusts: 32mph
Location:  41.93°N, 124.15°W
Report Text: KCEC 250816Z AUTO 22021G28KT 10SM FEW008 OVC060 16/13 A2960 RMK AO2 PK WND 23028/0816 WSHFT 0801 PRESRR T01560128
Loading
Personal Weather Stations






























Interactive Weather Map
Tropical Storm Tracking
New forecast layout! Learn more

10-Day Weather Forecast

Advertisements
Track Severe Weather on mobile